Juquia, Brazil
Current Conditions -  °F | °C
As of 8:00 AM on Saturday 25 Oct 2014 (Local Time) from SBSP Reporting Station
Haze Haze  
Wind Chill: 63°   Ceiling: 300
Heat Index: 63°   Visibility: 1mi
Dew Point: 59°   Wind: 6mph
Humidity: 88%   Direction: 180°S
Pressure: NA   Gusts: NA
Location:  24.32°S, 47.63°W
Report Text: SBSP 251000Z 18005KT 1700 R17/1500U R35/1800D BR OVC003 17/15 Q1017
Loading
Personal Weather Stations






























Interactive Weather Map
Tropical Storm Tracking
New forecast layout! Learn more

10-Day Weather Forecast

Advertisements
Track Severe Weather on mobile